Time;durP1;ratioP1;P1;durP2;ratioP2;P2;SDS_P1;SDS_P2;PMS_P1;PMS_P2;Temp;Humidity;BMP_temperature;BMP_pressure;BME280_temperature;BME280_humidity;BME280_pressure;Samples;Min_cycle;Max_cycle;Signal;HPM_P1;HPM_P2
2022/04/05 00:00:10;;;;;;;65.70;51.80;;;;;;;;;;5013677;28;20413;-61
2022/04/05 00:02:36;;;;;;;65.65;52.47;;;;;;;;;;5013886;28;20415;-61
2022/04/05 00:05:02;;;;;;;67.37;51.50;;;;;;;;;;5013770;28;20618;-61
2022/04/05 00:07:28;;;;;;;68.03;50.70;;;;;;;;;;5013897;28;20875;-61
2022/04/05 00:09:54;;;;;;;66.63;51.25;;;;;;;;;;5013766;28;20418;-60
2022/04/05 00:12:20;;;;;;;67.78;52.47;;;;;;;;;;5013520;28;20192;-61
2022/04/05 00:14:49;;;;;;;67.87;51.00;;;;;;;;;;5013590;28;20196;-61
2022/04/05 00:17:15;;;;;;;65.32;50.47;;;;;;;;;;5013667;28;20494;-62
2022/04/05 00:19:41;;;;;;;61.67;49.92;;;;;;;;;;5013571;28;20208;-61
2022/04/05 00:22:07;;;;;;;61.35;49.47;;;;;;;;;;5013401;28;20180;-61
2022/04/05 00:24:33;;;;;;;67.30;50.47;;;;;;;;;;5013278;28;20287;-61
2022/04/05 00:26:59;;;;;;;66.80;50.37;;;;;;;;;;5013525;28;20431;-61
2022/04/05 00:29:25;;;;;;;66.17;50.77;;;;;;;;;;5013273;28;20911;-62
2022/04/05 00:31:51;;;;;;;65.30;50.88;;;;;;;;;;5013097;28;20403;-62
2022/04/05 00:34:18;;;;;;;67.50;52.88;;;;;;;;;;5013264;28;20192;-62
2022/04/05 00:36:44;;;;;;;65.95;51.83;;;;;;;;;;5012799;28;20176;-61
2022/04/05 00:39:10;;;;;;;65.75;50.83;;;;;;;;;;5013211;28;20264;-61
2022/04/05 00:41:36;;;;;;;59.97;48.55;;;;;;;;;;5012918;28;20176;-61
2022/04/05 00:44:03;;;;;;;56.65;50.53;;;;;;;;;;5012989;28;20206;-61
2022/04/05 00:46:29;;;;;;;56.92;46.40;;;;;;;;;;5012986;28;20733;-61
2022/04/05 00:48:57;;;;;;;59.80;49.97;;;;;;;;;;5013794;28;20259;-61
2022/04/05 00:51:23;;;;;;;63.20;50.65;;;;;;;;;;5013145;28;20423;-61
2022/04/05 00:53:52;;;;;;;39.95;36.45;;;;;;;;;;5012940;28;20583;-61
2022/04/05 00:56:18;;;;;;;43.80;39.92;;;;;;;;;;5012873;28;20175;-61
2022/04/05 00:58:48;;;;;;;57.03;50.45;;;;;;;;;;5012877;28;20185;-62
2022/04/05 01:01:16;;;;;;;57.42;48.78;;;;;;;;;;5012641;28;20200;-62
2022/04/05 01:03:48;;;;;;;60.50;50.53;;;;;;;;;;5012695;28;20277;-62
2022/04/05 01:06:15;;;;;;;59.28;49.20;;;;;;;;;;5012680;28;20205;-61
2022/04/05 01:08:42;;;;;;;52.15;46.22;;;;;;;;;;5012638;28;20254;-61
2022/04/05 01:11:08;;;;;;;54.38;48.45;;;;;;;;;;5011944;28;20171;-62
2022/04/05 01:13:34;;;;;;;44.00;40.20;;;;;;;;;;5012501;28;20228;-61
2022/04/05 01:16:00;;;;;;;55.70;49.00;;;;;;;;;;5012624;28;20213;-61
2022/04/05 01:18:26;;;;;;;58.20;49.50;;;;;;;;;;5012370;28;20434;-61
2022/04/05 01:20:52;;;;;;;56.23;47.30;;;;;;;;;;5012439;28;20422;-61
2022/04/05 01:23:22;;;;;;;57.77;49.40;;;;;;;;;;5012361;28;20435;-61
2022/04/05 01:25:48;;;;;;;55.20;48.22;;;;;;;;;;5012276;28;20481;-61
2022/04/05 01:28:14;;;;;;;59.20;49.50;;;;;;;;;;5012508;28;20174;-61
2022/04/05 01:30:40;;;;;;;53.88;45.75;;;;;;;;;;5012069;28;20242;-62
2022/04/05 01:33:07;;;;;;;56.75;48.42;;;;;;;;;;5012114;28;20187;-61
2022/04/05 01:35:36;;;;;;;56.72;47.22;;;;;;;;;;5012526;28;20665;-61
2022/04/05 01:38:03;;;;;;;50.45;45.08;;;;;;;;;;5012436;28;20188;-61
2022/04/05 01:40:29;;;;;;;54.10;48.20;;;;;;;;;;5012018;28;20190;-61
2022/04/05 01:42:55;;;;;;;52.78;46.47;;;;;;;;;;5012065;28;20181;-61
2022/04/05 01:45:22;;;;;;;53.25;47.15;;;;;;;;;;5011960;28;20253;-62
2022/04/05 01:47:48;;;;;;;53.40;47.40;;;;;;;;;;5011273;28;20538;-61
2022/04/05 01:50:14;;;;;;;53.23;47.67;;;;;;;;;;5011816;28;20176;-61
2022/04/05 01:52:40;;;;;;;48.50;43.43;;;;;;;;;;5011929;28;20470;-61
2022/04/05 01:55:07;;;;;;;54.13;46.57;;;;;;;;;;5011874;28;20450;-61
2022/04/05 01:57:33;;;;;;;55.38;49.55;;;;;;;;;;5011907;28;20806;-61
2022/04/05 01:59:59;;;;;;;53.67;47.55;;;;;;;;;;5011859;28;20258;-62
2022/04/05 02:02:25;;;;;;;56.43;48.60;;;;;;;;;;5010534;28;20179;-61
2022/04/05 02:04:51;;;;;;;52.47;45.10;;;;;;;;;;5011354;28;20459;-61
2022/04/05 02:07:18;;;;;;;58.10;48.90;;;;;;;;;;5011761;28;20412;-61
2022/04/05 02:09:44;;;;;;;57.15;47.17;;;;;;;;;;5011800;28;20418;-62
2022/04/05 02:12:10;;;;;;;63.42;49.42;;;;;;;;;;5011584;28;20216;-61
2022/04/05 02:14:40;;;;;;;59.67;48.80;;;;;;;;;;5011527;28;20657;-61
2022/04/05 02:17:07;;;;;;;64.85;48.70;;;;;;;;;;5011752;28;20177;-61
2022/04/05 02:19:34;;;;;;;64.28;49.75;;;;;;;;;;5011815;28;20253;-62
2022/04/05 02:21:59;;;;;;;63.47;48.85;;;;;;;;;;5011444;28;20183;-60
2022/04/05 02:24:25;;;;;;;64.47;47.87;;;;;;;;;;5011525;28;20676;-61
2022/04/05 02:26:51;;;;;;;67.60;48.83;;;;;;;;;;5011663;28;20423;-61
2022/04/05 02:29:17;;;;;;;64.40;52.53;;;;;;;;;;5011511;28;20416;-61
2022/04/05 02:31:43;;;;;;;58.25;48.05;;;;;;;;;;5011353;28;20442;-61
2022/04/05 02:34:09;;;;;;;59.40;47.90;;;;;;;;;;5011512;28;20630;-62
2022/04/05 02:36:36;;;;;;;59.40;46.95;;;;;;;;;;5011469;28;20180;-61
2022/04/05 02:39:03;;;;;;;53.92;44.65;;;;;;;;;;5011530;28;20185;-61
2022/04/05 02:41:29;;;;;;;58.97;47.38;;;;;;;;;;5011274;28;20242;-61
2022/04/05 02:43:55;;;;;;;58.55;46.13;;;;;;;;;;5011355;28;20635;-61
2022/04/05 02:46:21;;;;;;;56.03;45.67;;;;;;;;;;5011407;28;20209;-60
2022/04/05 02:48:48;;;;;;;59.33;48.15;;;;;;;;;;5011473;28;20553;-61
2022/04/05 02:51:15;;;;;;;59.03;48.33;;;;;;;;;;5011292;28;20176;-61
2022/04/05 02:53:41;;;;;;;56.42;46.63;;;;;;;;;;5011293;28;20207;-61
2022/04/05 02:56:07;;;;;;;61.47;47.28;;;;;;;;;;5011429;28;20585;-62
2022/04/05 02:58:34;;;;;;;66.70;49.60;;;;;;;;;;5011405;28;20243;-61
2022/04/05 03:01:00;;;;;;;73.38;52.72;;;;;;;;;;5015373;28;20184;-61
2022/04/05 03:03:26;;;;;;;65.30;48.00;;;;;;;;;;5014996;28;20212;-61
2022/04/05 03:05:52;;;;;;;62.47;48.33;;;;;;;;;;5014843;28;20463;-61
2022/04/05 03:08:18;;;;;;;67.60;49.60;;;;;;;;;;5014944;28;20407;-61
2022/04/05 03:10:44;;;;;;;68.60;50.67;;;;;;;;;;5014563;28;20951;-61
2022/04/05 03:13:10;;;;;;;62.50;47.63;;;;;;;;;;5014717;28;20404;-61
2022/04/05 03:15:36;;;;;;;60.75;49.40;;;;;;;;;;5014783;28;20818;-62
2022/04/05 03:18:02;;;;;;;57.60;47.50;;;;;;;;;;5014761;28;20184;-62
2022/04/05 03:20:28;;;;;;;56.97;47.77;;;;;;;;;;5013201;28;20464;-61
2022/04/05 03:22:55;;;;;;;64.93;50.47;;;;;;;;;;5014546;28;20477;-62
2022/04/05 03:25:22;;;;;;;63.03;48.38;;;;;;;;;;5014590;28;20284;-62
2022/04/05 03:27:49;;;;;;;70.82;50.53;;;;;;;;;;5014490;28;20541;-61
2022/04/05 03:30:15;;;;;;;56.17;50.35;;;;;;;;;;5014327;28;20191;-61
2022/04/05 03:32:42;;;;;;;59.22;47.28;;;;;;;;;;5014634;28;20268;-61
2022/04/05 03:35:08;;;;;;;67.78;48.47;;;;;;;;;;5014760;28;20664;-61
2022/04/05 03:37:35;;;;;;;67.10;50.08;;;;;;;;;;5014511;28;20549;-62
2022/04/05 03:40:01;;;;;;;69.80;50.83;;;;;;;;;;5014277;28;20266;-62
2022/04/05 03:42:27;;;;;;;86.47;54.13;;;;;;;;;;5014151;28;20201;-62
2022/04/05 03:44:53;;;;;;;83.20;53.53;;;;;;;;;;5012862;28;20210;-62
2022/04/05 03:47:19;;;;;;;73.10;51.13;;;;;;;;;;5014301;28;20182;-61
2022/04/05 03:49:46;;;;;;;85.37;53.40;;;;;;;;;;5014045;28;20169;-62
2022/04/05 03:52:12;;;;;;;86.13;53.60;;;;;;;;;;5013938;28;20410;-62
2022/04/05 03:54:38;;;;;;;84.32;53.95;;;;;;;;;;5029232;22;20236;-60
2022/04/05 03:57:04;;;;;;;87.40;52.97;;;;;;;;;;4997014;28;20210;-59
2022/04/05 03:59:30;;;;;;;82.28;52.75;;;;;;;;;;4994273;28;20182;-57
2022/04/05 04:01:56;;;;;;;82.60;52.67;;;;;;;;;;4993974;28;20194;-59
2022/04/05 04:04:22;;;;;;;74.70;51.97;;;;;;;;;;4994311;28;20440;-55
2022/04/05 04:06:48;;;;;;;77.90;52.80;;;;;;;;;;4994275;28;20235;-58
2022/04/05 04:09:14;;;;;;;76.53;54.30;;;;;;;;;;5000294;28;20435;-58
2022/04/05 04:11:40;;;;;;;68.90;50.70;;;;;;;;;;4992872;28;20408;-56
2022/04/05 04:14:07;;;;;;;70.65;52.90;;;;;;;;;;4994033;28;20487;-58
2022/04/05 04:16:33;;;;;;;71.93;51.45;;;;;;;;;;4993960;28;20182;-57
2022/04/05 04:18:59;;;;;;;65.25;49.20;;;;;;;;;;4993885;28;20185;-59
2022/04/05 04:21:25;;;;;;;75.50;52.08;;;;;;;;;;4993796;28;20548;-57
2022/04/05 04:23:51;;;;;;;77.40;51.83;;;;;;;;;;4993914;28;20217;-59
2022/04/05 04:26:17;;;;;;;76.80;52.83;;;;;;;;;;4993851;28;20530;-60
2022/04/05 04:28:43;;;;;;;71.15;50.92;;;;;;;;;;4993815;28;20803;-60
2022/04/05 04:31:09;;;;;;;72.13;52.07;;;;;;;;;;4993493;28;20177;-56
2022/04/05 04:33:35;;;;;;;70.60;49.37;;;;;;;;;;4993810;28;20500;-56
2022/04/05 04:36:01;;;;;;;74.00;51.50;;;;;;;;;;4993776;28;20435;-58
2022/04/05 04:38:27;;;;;;;75.22;49.80;;;;;;;;;;4993762;28;20417;-55
2022/04/05 04:40:53;;;;;;;67.07;50.08;;;;;;;;;;4993312;28;20187;-58
2022/04/05 04:43:20;;;;;;;78.93;51.10;;;;;;;;;;4993602;28;20260;-58
2022/04/05 04:45:46;;;;;;;79.07;51.85;;;;;;;;;;4993195;28;20468;-55
2022/04/05 04:48:12;;;;;;;86.57;52.65;;;;;;;;;;4993371;28;20183;-58
2022/04/05 04:50:38;;;;;;;88.20;52.50;;;;;;;;;;4993173;28;20188;-57
2022/04/05 04:53:04;;;;;;;83.78;52.55;;;;;;;;;;4993301;28;20168;-58
2022/04/05 04:55:32;;;;;;;82.78;51.17;;;;;;;;;;4993154;28;20216;-59
2022/04/05 04:57:58;;;;;;;90.03;52.80;;;;;;;;;;4993167;28;20193;-59
2022/04/05 05:00:24;;;;;;;89.95;54.72;;;;;;;;;;4993910;28;20176;-58
2022/04/05 05:02:50;;;;;;;87.60;51.97;;;;;;;;;;4993031;28;20183;-57
2022/04/05 05:05:20;;;;;;;87.15;52.88;;;;;;;;;;4993014;28;21113;-58
2022/04/05 05:07:47;;;;;;;83.72;50.90;;;;;;;;;;4992999;28;20176;-59
2022/04/05 05:10:14;;;;;;;86.07;51.70;;;;;;;;;;4992823;28;20184;-59
2022/04/05 05:12:40;;;;;;;86.45;52.28;;;;;;;;;;4992884;28;20601;-60
2022/04/05 05:15:10;;;;;;;84.30;52.23;;;;;;;;;;4992810;28;20205;-59
2022/04/05 05:17:36;;;;;;;85.53;51.63;;;;;;;;;;4992809;28;20431;-57
2022/04/05 05:20:05;;;;;;;84.38;51.63;;;;;;;;;;4992885;28;20222;-58
2022/04/05 05:22:31;;;;;;;81.00;50.95;;;;;;;;;;4992613;28;20203;-60
2022/04/05 05:24:57;;;;;;;86.45;52.35;;;;;;;;;;4992625;28;20233;-54
2022/04/05 05:27:23;;;;;;;78.50;50.77;;;;;;;;;;4992667;28;20637;-60
2022/04/05 05:29:49;;;;;;;79.53;49.93;;;;;;;;;;4992660;28;20777;-59
2022/04/05 05:32:15;;;;;;;81.27;51.23;;;;;;;;;;4992429;28;20442;-58
2022/04/05 05:34:41;;;;;;;82.35;51.95;;;;;;;;;;4992553;28;20447;-59
2022/04/05 05:37:08;;;;;;;89.13;52.20;;;;;;;;;;4992559;28;20220;-59
2022/04/05 05:39:35;;;;;;;87.72;51.47;;;;;;;;;;4992428;28;20971;-59
2022/04/05 05:42:01;;;;;;;86.10;51.60;;;;;;;;;;4992087;28;20184;-58
2022/04/05 05:44:27;;;;;;;84.53;50.33;;;;;;;;;;4992370;28;20210;-60
2022/04/05 05:46:53;;;;;;;83.28;53.25;;;;;;;;;;4992237;28;20410;-60
2022/04/05 05:49:18;;;;;;;85.47;52.50;;;;;;;;;;4992379;28;20631;-60
2022/04/05 05:51:44;;;;;;;73.20;48.60;;;;;;;;;;4992112;28;20491;-60
2022/04/05 05:54:10;;;;;;;76.57;51.40;;;;;;;;;;4992153;28;20862;-60
2022/04/05 05:56:36;;;;;;;71.45;49.83;;;;;;;;;;4992452;28;20427;-60
2022/04/05 05:59:02;;;;;;;68.83;48.13;;;;;;;;;;4992288;28;20624;-58
2022/04/05 06:01:28;;;;;;;75.90;49.83;;;;;;;;;;4991998;28;20416;-56
2022/04/05 06:03:54;;;;;;;73.20;50.00;;;;;;;;;;5002811;28;20194;-60
2022/04/05 06:06:21;;;;;;;69.43;48.23;;;;;;;;;;5011730;28;20895;-60
2022/04/05 06:08:47;;;;;;;72.97;49.22;;;;;;;;;;5011709;28;20919;-58
2022/04/05 06:11:13;;;;;;;72.50;51.17;;;;;;;;;;5011135;28;20208;-60
2022/04/05 06:13:39;;;;;;;75.55;50.15;;;;;;;;;;5011354;28;20939;-58
2022/04/05 06:16:08;;;;;;;74.82;50.63;;;;;;;;;;5011644;28;20183;-59
2022/04/05 06:18:34;;;;;;;71.25;48.22;;;;;;;;;;5011740;28;20172;-58
2022/04/05 06:21:00;;;;;;;71.68;50.00;;;;;;;;;;5011525;28;20190;-59
2022/04/05 06:23:26;;;;;;;74.60;49.40;;;;;;;;;;5011107;28;20183;-59
2022/04/05 06:25:52;;;;;;;72.77;48.50;;;;;;;;;;5011422;28;20453;-60
2022/04/05 06:28:18;;;;;;;74.35;48.30;;;;;;;;;;5011332;28;20410;-57
2022/04/05 06:30:46;;;;;;;73.75;48.33;;;;;;;;;;5011312;28;20247;-61
2022/04/05 06:33:12;;;;;;;78.95;49.70;;;;;;;;;;5011492;28;20177;-60
2022/04/05 06:35:39;;;;;;;75.60;49.17;;;;;;;;;;5014849;28;20575;-59
2022/04/05 06:38:05;;;;;;;76.63;49.90;;;;;;;;;;5015394;28;20421;-60
2022/04/05 06:40:31;;;;;;;80.07;49.65;;;;;;;;;;5015017;28;20201;-58
2022/04/05 06:42:57;;;;;;;79.38;50.30;;;;;;;;;;5015336;28;20229;-59
2022/04/05 06:45:24;;;;;;;79.10;50.37;;;;;;;;;;5015149;28;20287;-60
2022/04/05 06:47:50;;;;;;;81.03;50.58;;;;;;;;;;4996349;28;20927;-59
2022/04/05 06:50:24;;;;;;;78.43;53.13;;;;;;;;;;4995485;28;20664;-58
2022/04/05 06:52:50;;;;;;;79.07;49.67;;;;;;;;;;4995478;28;20195;-60
2022/04/05 06:55:16;;;;;;;80.63;51.90;;;;;;;;;;4997245;28;20663;-60
2022/04/05 06:57:42;;;;;;;79.35;50.45;;;;;;;;;;4997016;28;20182;-55
2022/04/05 07:00:09;;;;;;;85.20;53.17;;;;;;;;;;4995315;28;20565;-58
2022/04/05 07:02:35;;;;;;;80.68;52.10;;;;;;;;;;4995448;28;20554;-60
2022/04/05 07:05:01;;;;;;;77.70;50.00;;;;;;;;;;4995304;28;20209;-58
2022/04/05 07:07:27;;;;;;;76.25;50.35;;;;;;;;;;4993903;28;20220;-59
2022/04/05 07:09:53;;;;;;;81.97;55.70;;;;;;;;;;4995358;28;20568;-57
2022/04/05 07:12:19;;;;;;;82.23;54.17;;;;;;;;;;4997754;28;21035;-59
2022/04/05 07:14:46;;;;;;;84.13;55.63;;;;;;;;;;5002466;28;20446;-60
2022/04/05 07:17:12;;;;;;;69.95;50.50;;;;;;;;;;5000463;28;20700;-60
2022/04/05 07:19:38;;;;;;;72.30;51.38;;;;;;;;;;4995589;28;20250;-59
2022/04/05 07:22:04;;;;;;;79.00;53.27;;;;;;;;;;4994625;28;20304;-60
2022/04/05 07:24:30;;;;;;;75.72;51.03;;;;;;;;;;4995219;28;20468;-60
2022/04/05 07:26:56;;;;;;;79.05;50.65;;;;;;;;;;4995209;28;20296;-59
2022/04/05 07:29:22;;;;;;;78.68;52.25;;;;;;;;;;5001949;28;20193;-60
2022/04/05 07:31:48;;;;;;;76.90;52.13;;;;;;;;;;5004674;28;20201;-59
2022/04/05 07:34:14;;;;;;;81.10;51.97;;;;;;;;;;4997202;28;20584;-59
2022/04/05 07:36:40;;;;;;;80.07;52.83;;;;;;;;;;4994853;28;20751;-59
2022/04/05 07:39:06;;;;;;;77.63;52.35;;;;;;;;;;4994957;28;20415;-60
2022/04/05 07:41:32;;;;;;;71.00;50.57;;;;;;;;;;4994792;28;20183;-55
2022/04/05 07:43:58;;;;;;;73.00;51.05;;;;;;;;;;4994452;28;20435;-59
2022/04/05 07:46:24;;;;;;;76.10;53.90;;;;;;;;;;4993726;28;20258;-59
2022/04/05 07:48:50;;;;;;;90.27;54.20;;;;;;;;;;4999600;28;20412;-55
2022/04/05 07:51:17;;;;;;;100.85;56.65;;;;;;;;;;4994168;28;20408;-56
2022/04/05 07:53:43;;;;;;;100.88;56.53;;;;;;;;;;4996998;28;20521;-59
2022/04/05 07:56:12;;;;;;;102.30;58.77;;;;;;;;;;5003918;28;20183;-60
2022/04/05 07:58:38;;;;;;;101.70;56.60;;;;;;;;;;4994263;28;20440;-59
2022/04/05 08:01:04;;;;;;;101.67;56.50;;;;;;;;;;4993968;28;20653;-58
2022/04/05 08:03:30;;;;;;;104.70;57.73;;;;;;;;;;5001753;28;20500;-59
2022/04/05 08:05:56;;;;;;;97.40;57.40;;;;;;;;;;4994347;28;20472;-59
2022/04/05 08:08:22;;;;;;;105.43;58.87;;;;;;;;;;4993667;28;20937;-58
2022/04/05 08:10:48;;;;;;;104.90;62.05;;;;;;;;;;4993722;28;20445;-59
2022/04/05 08:13:14;;;;;;;108.63;61.55;;;;;;;;;;4994101;28;20275;-60
2022/04/05 08:15:41;;;;;;;110.97;63.37;;;;;;;;;;4993920;28;20232;-58
2022/04/05 08:18:09;;;;;;;110.18;63.05;;;;;;;;;;4993373;28;20424;-59
2022/04/05 08:20:36;;;;;;;107.45;61.95;;;;;;;;;;4993641;28;20190;-59
2022/04/05 08:23:02;;;;;;;111.38;65.43;;;;;;;;;;4993946;28;20269;-58
2022/04/05 08:25:28;;;;;;;108.68;64.40;;;;;;;;;;4993338;28;20210;-60
2022/04/05 08:27:54;;;;;;;108.22;61.42;;;;;;;;;;4999840;28;20616;-59
2022/04/05 08:30:20;;;;;;;110.00;66.00;;;;;;;;;;4993104;28;20283;-58
2022/04/05 08:32:47;;;;;;;107.72;61.60;;;;;;;;;;4993529;28;20420;-59
2022/04/05 08:35:14;;;;;;;103.28;59.72;;;;;;;;;;5006774;28;20201;-58
2022/04/05 08:37:40;;;;;;;109.88;60.70;;;;;;;;;;4997509;28;20290;-59
2022/04/05 08:40:07;;;;;;;103.85;63.45;;;;;;;;;;4993309;28;20657;-59
2022/04/05 08:42:36;;;;;;;110.88;63.78;;;;;;;;;;4993382;28;20178;-58
2022/04/05 08:45:04;;;;;;;105.32;60.35;;;;;;;;;;4993275;28;20265;-59
2022/04/05 08:47:30;;;;;;;112.85;62.45;;;;;;;;;;4993354;28;20173;-59
2022/04/05 08:49:57;;;;;;;102.10;60.38;;;;;;;;;;4992916;28;20186;-57
2022/04/05 08:52:23;;;;;;;113.13;63.75;;;;;;;;;;4993051;28;20179;-60
2022/04/05 08:54:49;;;;;;;129.10;65.25;;;;;;;;;;4993103;28;20641;-59
2022/04/05 08:57:15;;;;;;;122.35;63.63;;;;;;;;;;4992603;28;20237;-59
2022/04/05 08:59:41;;;;;;;119.90;62.83;;;;;;;;;;4993195;28;20182;-59
2022/04/05 09:02:07;;;;;;;115.28;65.57;;;;;;;;;;4992824;28;20414;-58
2022/04/05 09:04:34;;;;;;;115.70;62.58;;;;;;;;;;4992883;28;20190;-58
2022/04/05 09:07:18;;;;;;;120.10;66.15;;;;;;;;;;4993135;28;20708;-58
2022/04/05 09:09:44;;;;;;;121.60;63.60;;;;;;;;;;4992585;28;20514;-60
2022/04/05 09:12:17;;;;;;;116.20;65.43;;;;;;;;;;4992586;28;20170;-59
2022/04/05 09:14:43;;;;;;;120.07;67.57;;;;;;;;;;4992906;28;20198;-58
2022/04/05 09:17:10;;;;;;;117.30;65.93;;;;;;;;;;4992929;28;20201;-57
2022/04/05 09:19:45;;;;;;;125.63;70.53;;;;;;;;;;4992769;28;20409;-58
2022/04/05 09:22:12;;;;;;;116.88;68.57;;;;;;;;;;4992476;28;20519;-59
2022/04/05 09:24:45;;;;;;;117.50;67.45;;;;;;;;;;4992534;28;20221;-59
2022/04/05 09:27:10;;;;;;;117.78;67.45;;;;;;;;;;4992628;28;20233;-58
2022/04/05 09:29:44;;;;;;;118.27;68.87;;;;;;;;;;4992700;28;20182;-60
2022/04/05 09:32:10;;;;;;;117.07;67.13;;;;;;;;;;4992061;28;20413;-59
2022/04/05 09:34:50;;;;;;;114.47;69.55;;;;;;;;;;4992339;28;20202;-60
2022/04/05 09:37:16;;;;;;;113.15;68.90;;;;;;;;;;4992662;28;20170;-58
2022/04/05 09:39:43;;;;;;;114.50;68.82;;;;;;;;;;4994871;28;20235;-60
2022/04/05 09:42:09;;;;;;;111.95;69.93;;;;;;;;;;4998061;28;20262;-59
2022/04/05 09:44:40;;;;;;;117.65;70.53;;;;;;;;;;4992177;28;20209;-60
2022/04/05 09:47:07;;;;;;;114.30;70.53;;;;;;;;;;4992412;28;20182;-59
2022/04/05 09:49:37;;;;;;;109.32;70.28;;;;;;;;;;4997915;28;20545;-60
2022/04/05 09:52:04;;;;;;;118.97;70.97;;;;;;;;;;4992746;28;20546;-58
2022/04/05 09:54:30;;;;;;;114.32;70.05;;;;;;;;;;4998191;28;20216;-59
2022/04/05 09:57:14;;;;;;;111.07;67.72;;;;;;;;;;4998872;28;20315;-59
2022/04/05 09:59:42;;;;;;;111.20;68.43;;;;;;;;;;4992017;28;20185;-59
2022/04/05 10:02:12;;;;;;;114.10;65.38;;;;;;;;;;4991703;28;20213;-58
2022/04/05 10:04:56;;;;;;;113.72;67.72;;;;;;;;;;4991933;28;20198;-60
2022/04/05 10:07:23;;;;;;;113.00;65.45;;;;;;;;;;4992046;28;20232;-60
2022/04/05 10:09:50;;;;;;;114.25;64.47;;;;;;;;;;4991194;28;20675;-59
2022/04/05 10:12:17;;;;;;;118.07;67.93;;;;;;;;;;4991610;28;20186;-60
2022/04/05 10:14:43;;;;;;;124.15;69.32;;;;;;;;;;4991882;28;20201;-60
2022/04/05 10:17:10;;;;;;;126.83;70.63;;;;;;;;;;4991879;28;20178;-59
2022/04/05 10:19:36;;;;;;;112.40;66.93;;;;;;;;;;4991891;28;20413;-59
2022/04/05 10:22:02;;;;;;;115.88;68.63;;;;;;;;;;4993742;28;20229;-60
2022/04/05 10:24:29;;;;;;;113.60;66.00;;;;;;;;;;4992021;28;20190;-59
2022/04/05 10:26:55;;;;;;;119.05;70.10;;;;;;;;;;4991720;28;20237;-59
2022/04/05 10:29:22;;;;;;;130.23;76.18;;;;;;;;;;4991912;28;20212;-59
2022/04/05 10:32:06;;;;;;;130.60;74.85;;;;;;;;;;4992240;28;20174;-59
2022/04/05 10:34:35;;;;;;;127.22;69.82;;;;;;;;;;4991203;28;20273;-59
2022/04/05 10:37:09;;;;;;;131.52;71.40;;;;;;;;;;4990900;28;20174;-58
2022/04/05 10:39:35;;;;;;;125.75;70.18;;;;;;;;;;4991648;28;20552;-55
2022/04/05 10:42:11;;;;;;;131.40;70.88;;;;;;;;;;4991596;28;20178;-59
2022/04/05 10:44:38;;;;;;;128.32;72.35;;;;;;;;;;4991757;28;20194;-57
2022/04/05 10:47:06;;;;;;;128.43;68.45;;;;;;;;;;4991888;28;20193;-60
2022/04/05 10:49:44;;;;;;;124.10;70.22;;;;;;;;;;4989986;28;20167;-57
2022/04/05 10:52:10;;;;;;;117.93;69.82;;;;;;;;;;4993439;28;20190;-59
2022/04/05 10:54:39;;;;;;;120.67;72.53;;;;;;;;;;4989831;28;20238;-58
2022/04/05 10:57:30;;;;;;;112.10;70.30;;;;;;;;;;4989893;28;20433;-59
2022/04/05 11:00:12;;;;;;;124.10;70.53;;;;;;;;;;4993933;28;20664;-60
2022/04/05 11:02:45;;;;;;;128.55;72.40;;;;;;;;;;4991638;28;20162;-56
2022/04/05 11:05:15;;;;;;;119.55;72.38;;;;;;;;;;4991571;28;20205;-59
2022/04/05 11:07:52;;;;;;;122.20;71.10;;;;;;;;;;4991776;28;20174;-57
2022/04/05 11:10:19;;;;;;;124.25;75.60;;;;;;;;;;4991750;28;20646;-60
2022/04/05 11:12:45;;;;;;;120.13;71.85;;;;;;;;;;4991546;28;20245;-59
2022/04/05 11:15:14;;;;;;;119.28;72.03;;;;;;;;;;4991392;28;20194;-58
2022/04/05 11:17:41;;;;;;;123.25;74.28;;;;;;;;;;5000945;28;20188;-60
2022/04/05 11:20:08;;;;;;;129.52;76.57;;;;;;;;;;4992345;28;20206;-60
2022/04/05 11:22:40;;;;;;;121.72;76.65;;;;;;;;;;4995241;28;20519;-57
2022/04/05 11:25:10;;;;;;;128.18;77.13;;;;;;;;;;4994884;28;20225;-60
2022/04/05 11:27:45;;;;;;;128.07;79.43;;;;;;;;;;4994976;28;20229;-60
2022/04/05 11:30:26;;;;;;;133.40;84.88;;;;;;;;;;4994798;28;20188;-57
2022/04/05 11:33:17;;;;;;;126.28;83.40;;;;;;;;;;4993802;28;20225;-60
2022/04/05 11:35:43;;;;;;;131.40;77.22;;;;;;;;;;4990534;28;20697;-60
2022/04/05 11:38:32;;;;;;;126.40;75.53;;;;;;;;;;4993391;28;20194;-59
2022/04/05 11:41:00;;;;;;;134.60;81.68;;;;;;;;;;4978798;28;20432;-58
2022/04/05 11:43:30;;;;;;;137.65;82.32;;;;;;;;;;4993520;28;20171;-60
2022/04/05 11:46:01;;;;;;;133.77;82.45;;;;;;;;;;4991158;28;20240;-60
2022/04/05 11:48:28;;;;;;;123.93;79.40;;;;;;;;;;4993433;28;20535;-59
2022/04/05 11:50:54;;;;;;;126.20;79.55;;;;;;;;;;4993006;28;20178;-61
2022/04/05 11:53:23;;;;;;;128.15;81.65;;;;;;;;;;4993287;28;20176;-60
2022/04/05 11:56:05;;;;;;;134.50;76.82;;;;;;;;;;4993220;28;20218;-59
2022/04/05 11:58:34;;;;;;;131.07;82.95;;;;;;;;;;4994405;28;20176;-61
2022/04/05 12:01:00;;;;;;;143.68;87.53;;;;;;;;;;4993904;28;20178;-60
2022/04/05 12:03:26;;;;;;;134.93;89.40;;;;;;;;;;4992094;28;20178;-55
2022/04/05 12:05:52;;;;;;;127.27;82.47;;;;;;;;;;4998187;28;20292;-60
2022/04/05 12:08:18;;;;;;;138.07;83.97;;;;;;;;;;4995513;28;20410;-58
2022/04/05 12:10:45;;;;;;;129.95;82.82;;;;;;;;;;4993505;28;20476;-60
2022/04/05 12:13:11;;;;;;;131.93;86.75;;;;;;;;;;4993152;28;20186;-54
2022/04/05 12:15:38;;;;;;;133.70;86.95;;;;;;;;;;4994153;28;20543;-60
2022/04/05 12:18:20;;;;;;;130.60;88.50;;;;;;;;;;4991295;28;20190;-60
2022/04/05 12:21:15;;;;;;;133.77;88.72;;;;;;;;;;4991071;28;20221;-60
2022/04/05 12:23:43;;;;;;;126.43;85.20;;;;;;;;;;4977833;28;20690;-60
2022/04/05 12:26:11;;;;;;;128.13;89.35;;;;;;;;;;4992721;28;20210;-60
2022/04/05 12:28:38;;;;;;;125.32;88.82;;;;;;;;;;4992932;28;20228;-58
2022/04/05 12:31:12;;;;;;;133.18;90.05;;;;;;;;;;4992493;28;20174;-59
2022/04/05 12:33:39;;;;;;;129.30;86.85;;;;;;;;;;4993154;28;20175;-57
2022/04/05 12:36:05;;;;;;;128.13;89.32;;;;;;;;;;4993537;28;20254;-58
2022/04/05 12:38:33;;;;;;;124.95;84.82;;;;;;;;;;4993818;28;20194;-59
2022/04/05 12:41:00;;;;;;;125.32;83.88;;;;;;;;;;4992620;28;20178;-60
2022/04/05 12:43:26;;;;;;;134.77;86.30;;;;;;;;;;4993477;28;20178;-58
2022/04/05 12:45:54;;;;;;;135.93;87.30;;;;;;;;;;4993422;28;20677;-60
2022/04/05 12:48:21;;;;;;;134.45;86.32;;;;;;;;;;4995925;28;20958;-60
2022/04/05 12:50:51;;;;;;;136.25;91.85;;;;;;;;;;5001541;28;20257;-60
2022/04/05 12:53:27;;;;;;;130.35;89.35;;;;;;;;;;5003310;28;20183;-60
2022/04/05 12:56:00;;;;;;;131.70;91.93;;;;;;;;;;5001201;28;20295;-60
2022/04/05 12:58:36;;;;;;;133.98;92.60;;;;;;;;;;4993415;28;20178;-59
2022/04/05 13:01:02;;;;;;;139.48;94.75;;;;;;;;;;4992860;28;20597;-60
2022/04/05 13:03:32;;;;;;;131.25;89.97;;;;;;;;;;4993317;28;20554;-58
2022/04/05 13:08:43;;;;;;;128.43;88.95;;;;;;;;;;4993459;28;20232;-61
2022/04/05 13:11:25;;;;;;;132.80;89.45;;;;;;;;;;4992976;28;20637;-61
2022/04/05 13:14:02;;;;;;;138.77;90.13;;;;;;;;;;4993370;28;20206;-60
2022/04/05 13:16:28;;;;;;;138.98;90.10;;;;;;;;;;4992988;28;20174;-59
2022/04/05 13:18:54;;;;;;;139.43;93.32;;;;;;;;;;4992941;28;20182;-58
2022/04/05 13:21:25;;;;;;;132.52;91.95;;;;;;;;;;4992767;28;20178;-61
2022/04/05 13:24:01;;;;;;;143.05;96.47;;;;;;;;;;4992953;28;20332;-60
2022/04/05 13:26:27;;;;;;;139.27;94.90;;;;;;;;;;4992929;28;20214;-60
2022/04/05 13:29:07;;;;;;;144.20;94.10;;;;;;;;;;4993151;28;20535;-60
2022/04/05 13:31:35;;;;;;;144.57;96.35;;;;;;;;;;4992722;28;20669;-60
2022/04/05 13:34:01;;;;;;;138.07;95.35;;;;;;;;;;4992737;28;20194;-59
2022/04/05 13:36:27;;;;;;;133.00;93.93;;;;;;;;;;4992589;28;20178;-60
2022/04/05 13:38:53;;;;;;;135.38;95.63;;;;;;;;;;4992774;28;20202;-58
2022/04/05 13:41:19;;;;;;;145.17;96.67;;;;;;;;;;4992405;28;20174;-60
2022/04/05 13:43:45;;;;;;;135.33;93.20;;;;;;;;;;4992533;28;20413;-60
2022/04/05 13:46:11;;;;;;;137.85;99.13;;;;;;;;;;4992528;28;20456;-60
2022/04/05 13:48:37;;;;;;;136.23;97.17;;;;;;;;;;4994914;28;20705;-58
2022/04/05 13:51:03;;;;;;;146.17;101.33;;;;;;;;;;4992406;28;20402;-59
2022/04/05 13:53:30;;;;;;;142.88;96.18;;;;;;;;;;4992636;28;20410;-61
2022/04/05 13:55:59;;;;;;;145.23;97.95;;;;;;;;;;4992578;28;20186;-60
2022/04/05 13:58:25;;;;;;;144.23;97.22;;;;;;;;;;4991881;28;20202;-60
2022/04/05 14:00:51;;;;;;;140.37;95.77;;;;;;;;;;4992457;28;20190;-59
2022/04/05 14:03:19;;;;;;;139.47;96.33;;;;;;;;;;4995077;28;20471;-60
2022/04/05 14:05:45;;;;;;;140.75;98.95;;;;;;;;;;4994342;28;20813;-61
2022/04/05 14:08:11;;;;;;;127.30;96.40;;;;;;;;;;4984371;28;20205;-60
2022/04/05 14:10:38;;;;;;;120.40;95.70;;;;;;;;;;4991933;28;20206;-58
2022/04/05 14:13:04;;;;;;;142.48;99.40;;;;;;;;;;4992219;28;20406;-60
2022/04/05 14:15:30;;;;;;;136.13;98.03;;;;;;;;;;4992215;28;20543;-59